sensor_id;sensor_type;location;lat;lon;timestamp;P1;durP1;ratioP1;P2;durP2;ratioP2
751;SDS011;360;48.764;9.164;2023-03-01T00:01:26;4.37;;;4.00;;
751;SDS011;360;48.764;9.164;2023-03-01T00:03:54;5.30;;;4.57;;
751;SDS011;360;48.764;9.164;2023-03-01T00:06:22;7.73;;;4.60;;
751;SDS011;360;48.764;9.164;2023-03-01T00:08:50;7.40;;;4.17;;
751;SDS011;360;48.764;9.164;2023-03-01T00:11:18;11.57;;;6.70;;
751;SDS011;360;48.764;9.164;2023-03-01T00:13:46;9.73;;;4.97;;
751;SDS011;360;48.764;9.164;2023-03-01T00:16:14;6.07;;;4.77;;
751;SDS011;360;48.764;9.164;2023-03-01T00:18:42;9.63;;;4.93;;
751;SDS011;360;48.764;9.164;2023-03-01T00:21:09;7.77;;;4.53;;
751;SDS011;360;48.764;9.164;2023-03-01T00:23:37;9.37;;;5.43;;
751;SDS011;360;48.764;9.164;2023-03-01T00:26:05;6.57;;;5.40;;
751;SDS011;360;48.764;9.164;2023-03-01T00:28:33;6.00;;;4.23;;
751;SDS011;360;48.764;9.164;2023-03-01T00:31:02;7.60;;;3.80;;
751;SDS011;360;48.764;9.164;2023-03-01T00:33:30;7.43;;;4.20;;
751;SDS011;360;48.764;9.164;2023-03-01T00:35:57;5.83;;;5.33;;
751;SDS011;360;48.764;9.164;2023-03-01T00:38:24;7.00;;;4.03;;
751;SDS011;360;48.764;9.164;2023-03-01T00:40:53;6.87;;;4.93;;
751;SDS011;360;48.764;9.164;2023-03-01T00:43:20;7.27;;;4.80;;
751;SDS011;360;48.764;9.164;2023-03-01T00:45:47;12.00;;;5.73;;
751;SDS011;360;48.764;9.164;2023-03-01T00:48:14;8.00;;;5.37;;
751;SDS011;360;48.764;9.164;2023-03-01T00:50:41;8.50;;;5.60;;
751;SDS011;360;48.764;9.164;2023-03-01T00:53:08;10.30;;;5.83;;
751;SDS011;360;48.764;9.164;2023-03-01T00:55:36;13.83;;;4.73;;
751;SDS011;360;48.764;9.164;2023-03-01T00:58:04;6.47;;;4.50;;
751;SDS011;360;48.764;9.164;2023-03-01T01:00:31;5.83;;;4.23;;
751;SDS011;360;48.764;9.164;2023-03-01T01:02:58;5.70;;;4.13;;
751;SDS011;360;48.764;9.164;2023-03-01T01:05:25;8.60;;;6.53;;
751;SDS011;360;48.764;9.164;2023-03-01T01:07:53;8.37;;;5.20;;
751;SDS011;360;48.764;9.164;2023-03-01T01:10:20;7.07;;;4.43;;
751;SDS011;360;48.764;9.164;2023-03-01T01:12:47;6.60;;;4.53;;
751;SDS011;360;48.764;9.164;2023-03-01T01:15:15;7.40;;;5.13;;
751;SDS011;360;48.764;9.164;2023-03-01T01:17:43;8.00;;;4.73;;
751;SDS011;360;48.764;9.164;2023-03-01T01:20:10;12.97;;;6.90;;
751;SDS011;360;48.764;9.164;2023-03-01T01:22:37;9.70;;;4.80;;
751;SDS011;360;48.764;9.164;2023-03-01T01:25:05;6.17;;;4.00;;
751;SDS011;360;48.764;9.164;2023-03-01T01:27:32;5.70;;;3.87;;
751;SDS011;360;48.764;9.164;2023-03-01T01:29:59;6.83;;;4.97;;
751;SDS011;360;48.764;9.164;2023-03-01T01:32:27;8.53;;;5.60;;
751;SDS011;360;48.764;9.164;2023-03-01T01:34:55;8.37;;;4.97;;
751;SDS011;360;48.764;9.164;2023-03-01T01:37:22;7.23;;;4.07;;
751;SDS011;360;48.764;9.164;2023-03-01T01:39:56;3.93;;;3.53;;
751;SDS011;360;48.764;9.164;2023-03-01T01:42:23;8.33;;;4.93;;
751;SDS011;360;48.764;9.164;2023-03-01T01:47:34;4.63;;;4.10;;
751;SDS011;360;48.764;9.164;2023-03-01T01:50:02;12.20;;;6.13;;
751;SDS011;360;48.764;9.164;2023-03-01T01:52:29;15.10;;;5.60;;
751;SDS011;360;48.764;9.164;2023-03-01T01:54:59;10.70;;;5.47;;
751;SDS011;360;48.764;9.164;2023-03-01T01:57:27;4.73;;;4.23;;
751;SDS011;360;48.764;9.164;2023-03-01T01:59:58;7.30;;;4.40;;
751;SDS011;360;48.764;9.164;2023-03-01T02:02:27;4.57;;;4.17;;
751;SDS011;360;48.764;9.164;2023-03-01T02:04:58;4.90;;;4.00;;
751;SDS011;360;48.764;9.164;2023-03-01T02:07:29;12.37;;;6.47;;
751;SDS011;360;48.764;9.164;2023-03-01T02:09:56;7.77;;;6.20;;
751;SDS011;360;48.764;9.164;2023-03-01T02:12:25;9.03;;;5.57;;
751;SDS011;360;48.764;9.164;2023-03-01T02:14:52;7.73;;;4.60;;
751;SDS011;360;48.764;9.164;2023-03-01T02:17:19;5.33;;;4.17;;
751;SDS011;360;48.764;9.164;2023-03-01T02:19:50;9.20;;;4.13;;
751;SDS011;360;48.764;9.164;2023-03-01T02:22:22;12.10;;;6.07;;
751;SDS011;360;48.764;9.164;2023-03-01T02:24:52;6.43;;;5.30;;
751;SDS011;360;48.764;9.164;2023-03-01T02:27:26;9.13;;;4.40;;
751;SDS011;360;48.764;9.164;2023-03-01T02:29:58;7.13;;;4.47;;
751;SDS011;360;48.764;9.164;2023-03-01T02:32:25;5.27;;;4.37;;
751;SDS011;360;48.764;9.164;2023-03-01T02:34:51;12.67;;;5.67;;
751;SDS011;360;48.764;9.164;2023-03-01T02:37:19;8.60;;;6.23;;
751;SDS011;360;48.764;9.164;2023-03-01T02:39:50;6.97;;;5.13;;
751;SDS011;360;48.764;9.164;2023-03-01T02:42:20;6.70;;;5.17;;
751;SDS011;360;48.764;9.164;2023-03-01T02:44:49;6.80;;;5.17;;
751;SDS011;360;48.764;9.164;2023-03-01T02:47:18;8.63;;;5.57;;
751;SDS011;360;48.764;9.164;2023-03-01T02:49:45;8.13;;;5.97;;
751;SDS011;360;48.764;9.164;2023-03-01T02:54:58;7.00;;;4.40;;
751;SDS011;360;48.764;9.164;2023-03-01T02:57:28;7.63;;;4.60;;
751;SDS011;360;48.764;9.164;2023-03-01T02:59:56;6.80;;;5.13;;
751;SDS011;360;48.764;9.164;2023-03-01T03:02:26;14.17;;;5.87;;
751;SDS011;360;48.764;9.164;2023-03-01T03:05:03;9.93;;;7.10;;
751;SDS011;360;48.764;9.164;2023-03-01T03:07:31;13.10;;;6.67;;
751;SDS011;360;48.764;9.164;2023-03-01T03:09:59;14.10;;;8.63;;
751;SDS011;360;48.764;9.164;2023-03-01T03:12:26;5.63;;;5.03;;
751;SDS011;360;48.764;9.164;2023-03-01T03:14:53;5.80;;;4.37;;
751;SDS011;360;48.764;9.164;2023-03-01T03:17:20;12.53;;;6.00;;
751;SDS011;360;48.764;9.164;2023-03-01T03:19:48;9.63;;;6.03;;
751;SDS011;360;48.764;9.164;2023-03-01T03:22:15;12.23;;;7.60;;
751;SDS011;360;48.764;9.164;2023-03-01T03:24:43;9.33;;;6.43;;
751;SDS011;360;48.764;9.164;2023-03-01T03:27:10;6.10;;;5.33;;
751;SDS011;360;48.764;9.164;2023-03-01T03:29:37;7.17;;;4.70;;
751;SDS011;360;48.764;9.164;2023-03-01T03:32:04;6.33;;;4.63;;
751;SDS011;360;48.764;9.164;2023-03-01T03:34:32;12.13;;;6.93;;
751;SDS011;360;48.764;9.164;2023-03-01T03:37:00;8.77;;;5.57;;
751;SDS011;360;48.764;9.164;2023-03-01T03:39:27;7.27;;;6.10;;
751;SDS011;360;48.764;9.164;2023-03-01T03:41:59;9.03;;;4.43;;
751;SDS011;360;48.764;9.164;2023-03-01T03:44:26;10.67;;;6.03;;
751;SDS011;360;48.764;9.164;2023-03-01T03:46:54;6.53;;;5.13;;
751;SDS011;360;48.764;9.164;2023-03-01T03:49:21;11.63;;;6.67;;
751;SDS011;360;48.764;9.164;2023-03-01T03:51:48;8.30;;;6.00;;
751;SDS011;360;48.764;9.164;2023-03-01T03:54:16;10.70;;;6.40;;
751;SDS011;360;48.764;9.164;2023-03-01T03:56:43;11.23;;;8.23;;
751;SDS011;360;48.764;9.164;2023-03-01T03:59:10;9.40;;;6.53;;
751;SDS011;360;48.764;9.164;2023-03-01T04:01:38;6.03;;;4.87;;
751;SDS011;360;48.764;9.164;2023-03-01T04:04:05;10.87;;;5.73;;
751;SDS011;360;48.764;9.164;2023-03-01T04:06:32;12.23;;;6.17;;
751;SDS011;360;48.764;9.164;2023-03-01T04:08:59;10.60;;;5.03;;
751;SDS011;360;48.764;9.164;2023-03-01T04:11:29;8.00;;;5.17;;
751;SDS011;360;48.764;9.164;2023-03-01T04:13:57;12.30;;;6.37;;
751;SDS011;360;48.764;9.164;2023-03-01T04:16:25;8.10;;;4.93;;
751;SDS011;360;48.764;9.164;2023-03-01T04:18:52;9.80;;;6.07;;
751;SDS011;360;48.764;9.164;2023-03-01T04:21:20;11.03;;;7.20;;
751;SDS011;360;48.764;9.164;2023-03-01T04:23:47;11.30;;;6.80;;
751;SDS011;360;48.764;9.164;2023-03-01T04:26:17;12.70;;;7.03;;
751;SDS011;360;48.764;9.164;2023-03-01T04:28:46;10.60;;;6.50;;
751;SDS011;360;48.764;9.164;2023-03-01T04:31:15;7.57;;;5.13;;
751;SDS011;360;48.764;9.164;2023-03-01T04:33:44;9.57;;;5.67;;
751;SDS011;360;48.764;9.164;2023-03-01T04:36:11;9.10;;;6.03;;
751;SDS011;360;48.764;9.164;2023-03-01T04:38:39;13.93;;;8.57;;
751;SDS011;360;48.764;9.164;2023-03-01T04:41:07;10.10;;;5.37;;
751;SDS011;360;48.764;9.164;2023-03-01T04:43:35;11.50;;;5.80;;
751;SDS011;360;48.764;9.164;2023-03-01T04:46:05;6.57;;;5.70;;
751;SDS011;360;48.764;9.164;2023-03-01T04:48:34;9.80;;;5.97;;
751;SDS011;360;48.764;9.164;2023-03-01T04:51:01;10.90;;;6.50;;
751;SDS011;360;48.764;9.164;2023-03-01T04:53:28;6.40;;;4.60;;
751;SDS011;360;48.764;9.164;2023-03-01T04:55:56;9.27;;;6.23;;
751;SDS011;360;48.764;9.164;2023-03-01T04:58:23;13.27;;;6.30;;
751;SDS011;360;48.764;9.164;2023-03-01T05:00:51;16.00;;;7.70;;
751;SDS011;360;48.764;9.164;2023-03-01T05:03:19;7.23;;;5.47;;
751;SDS011;360;48.764;9.164;2023-03-01T05:05:47;9.13;;;5.83;;
751;SDS011;360;48.764;9.164;2023-03-01T05:08:15;13.60;;;6.80;;
751;SDS011;360;48.764;9.164;2023-03-01T05:10:44;9.87;;;5.77;;
751;SDS011;360;48.764;9.164;2023-03-01T05:13:12;6.27;;;4.70;;
751;SDS011;360;48.764;9.164;2023-03-01T05:15:40;6.23;;;4.17;;
751;SDS011;360;48.764;9.164;2023-03-01T05:18:08;8.93;;;4.50;;
751;SDS011;360;48.764;9.164;2023-03-01T05:20:37;13.07;;;6.70;;
751;SDS011;360;48.764;9.164;2023-03-01T05:23:05;10.23;;;7.53;;
751;SDS011;360;48.764;9.164;2023-03-01T05:25:32;10.77;;;6.30;;
751;SDS011;360;48.764;9.164;2023-03-01T05:28:05;14.03;;;6.33;;
751;SDS011;360;48.764;9.164;2023-03-01T05:30:33;7.30;;;5.63;;
751;SDS011;360;48.764;9.164;2023-03-01T05:33:00;14.27;;;7.80;;
751;SDS011;360;48.764;9.164;2023-03-01T05:35:27;13.03;;;7.30;;
751;SDS011;360;48.764;9.164;2023-03-01T05:37:58;9.90;;;7.63;;
751;SDS011;360;48.764;9.164;2023-03-01T05:40:26;8.40;;;5.20;;
751;SDS011;360;48.764;9.164;2023-03-01T05:42:55;7.97;;;6.33;;
751;SDS011;360;48.764;9.164;2023-03-01T05:45:22;13.37;;;7.63;;
751;SDS011;360;48.764;9.164;2023-03-01T05:47:50;13.17;;;6.20;;
751;SDS011;360;48.764;9.164;2023-03-01T05:50:19;8.57;;;5.40;;
751;SDS011;360;48.764;9.164;2023-03-01T05:52:47;7.90;;;6.17;;
751;SDS011;360;48.764;9.164;2023-03-01T05:55:16;13.20;;;5.77;;
751;SDS011;360;48.764;9.164;2023-03-01T05:57:43;9.93;;;7.00;;
751;SDS011;360;48.764;9.164;2023-03-01T06:00:11;12.60;;;6.47;;
751;SDS011;360;48.764;9.164;2023-03-01T06:02:38;9.90;;;5.77;;
751;SDS011;360;48.764;9.164;2023-03-01T06:05:05;11.00;;;6.43;;
751;SDS011;360;48.764;9.164;2023-03-01T06:07:33;12.00;;;8.27;;
751;SDS011;360;48.764;9.164;2023-03-01T06:10:01;10.10;;;7.00;;
751;SDS011;360;48.764;9.164;2023-03-01T06:12:31;8.60;;;6.30;;
751;SDS011;360;48.764;9.164;2023-03-01T06:14:58;7.77;;;6.23;;
751;SDS011;360;48.764;9.164;2023-03-01T06:17:25;14.87;;;8.03;;
751;SDS011;360;48.764;9.164;2023-03-01T06:19:52;10.10;;;6.20;;
751;SDS011;360;48.764;9.164;2023-03-01T06:22:19;9.10;;;6.23;;
751;SDS011;360;48.764;9.164;2023-03-01T06:24:47;13.10;;;6.70;;
751;SDS011;360;48.764;9.164;2023-03-01T06:27:14;7.60;;;5.63;;
751;SDS011;360;48.764;9.164;2023-03-01T06:29:42;9.50;;;5.83;;
751;SDS011;360;48.764;9.164;2023-03-01T06:32:09;9.70;;;7.40;;
751;SDS011;360;48.764;9.164;2023-03-01T06:34:36;6.40;;;4.23;;
751;SDS011;360;48.764;9.164;2023-03-01T06:37:04;6.30;;;5.37;;
751;SDS011;360;48.764;9.164;2023-03-01T06:39:31;11.80;;;6.17;;
751;SDS011;360;48.764;9.164;2023-03-01T06:41:59;11.83;;;7.30;;
751;SDS011;360;48.764;9.164;2023-03-01T06:44:26;11.10;;;6.53;;
751;SDS011;360;48.764;9.164;2023-03-01T06:46:54;12.83;;;6.83;;
751;SDS011;360;48.764;9.164;2023-03-01T06:49:22;10.37;;;6.90;;
751;SDS011;360;48.764;9.164;2023-03-01T06:51:49;8.63;;;5.90;;
751;SDS011;360;48.764;9.164;2023-03-01T06:54:16;22.23;;;8.30;;
751;SDS011;360;48.764;9.164;2023-03-01T06:56:46;11.73;;;7.37;;
751;SDS011;360;48.764;9.164;2023-03-01T06:59:13;10.23;;;6.83;;
751;SDS011;360;48.764;9.164;2023-03-01T07:01:40;15.43;;;9.10;;
751;SDS011;360;48.764;9.164;2023-03-01T07:04:09;11.97;;;7.20;;
751;SDS011;360;48.764;9.164;2023-03-01T07:06:36;12.30;;;6.77;;
751;SDS011;360;48.764;9.164;2023-03-01T07:09:04;12.73;;;7.53;;
751;SDS011;360;48.764;9.164;2023-03-01T07:11:31;8.90;;;6.37;;
751;SDS011;360;48.764;9.164;2023-03-01T07:13:58;9.13;;;6.10;;
751;SDS011;360;48.764;9.164;2023-03-01T07:16:25;7.60;;;6.03;;
751;SDS011;360;48.764;9.164;2023-03-01T07:18:52;16.50;;;6.80;;
751;SDS011;360;48.764;9.164;2023-03-01T07:21:21;15.43;;;7.60;;
751;SDS011;360;48.764;9.164;2023-03-01T07:23:48;10.57;;;6.37;;
751;SDS011;360;48.764;9.164;2023-03-01T07:26:15;10.20;;;5.93;;
751;SDS011;360;48.764;9.164;2023-03-01T07:28:42;8.70;;;6.57;;
751;SDS011;360;48.764;9.164;2023-03-01T07:31:10;8.53;;;5.30;;
751;SDS011;360;48.764;9.164;2023-03-01T07:33:37;14.47;;;7.23;;
751;SDS011;360;48.764;9.164;2023-03-01T07:36:04;19.50;;;7.83;;
751;SDS011;360;48.764;9.164;2023-03-01T07:38:33;11.20;;;6.10;;
751;SDS011;360;48.764;9.164;2023-03-01T07:41:01;13.07;;;7.77;;
751;SDS011;360;48.764;9.164;2023-03-01T07:43:28;13.97;;;6.00;;
751;SDS011;360;48.764;9.164;2023-03-01T07:45:57;10.90;;;6.80;;
751;SDS011;360;48.764;9.164;2023-03-01T07:48:25;9.20;;;5.70;;
751;SDS011;360;48.764;9.164;2023-03-01T07:50:52;11.77;;;6.77;;
751;SDS011;360;48.764;9.164;2023-03-01T07:53:19;13.10;;;6.70;;
751;SDS011;360;48.764;9.164;2023-03-01T07:55:48;11.07;;;6.63;;
751;SDS011;360;48.764;9.164;2023-03-01T07:58:15;11.27;;;7.40;;
751;SDS011;360;48.764;9.164;2023-03-01T08:00:42;9.43;;;6.83;;
751;SDS011;360;48.764;9.164;2023-03-01T08:03:09;14.97;;;7.60;;
751;SDS011;360;48.764;9.164;2023-03-01T08:05:36;11.97;;;6.93;;
751;SDS011;360;48.764;9.164;2023-03-01T08:08:04;20.10;;;10.13;;
751;SDS011;360;48.764;9.164;2023-03-01T08:10:31;12.50;;;7.90;;
751;SDS011;360;48.764;9.164;2023-03-01T08:12:59;17.37;;;8.60;;
751;SDS011;360;48.764;9.164;2023-03-01T08:15:26;8.57;;;5.43;;
751;SDS011;360;48.764;9.164;2023-03-01T08:17:53;15.27;;;6.80;;
751;SDS011;360;48.764;9.164;2023-03-01T08:20:20;33.10;;;7.17;;
751;SDS011;360;48.764;9.164;2023-03-01T08:22:47;10.60;;;7.53;;
751;SDS011;360;48.764;9.164;2023-03-01T08:25:15;9.90;;;6.50;;
751;SDS011;360;48.764;9.164;2023-03-01T08:27:42;23.17;;;6.63;;
751;SDS011;360;48.764;9.164;2023-03-01T08:30:11;9.90;;;5.87;;
751;SDS011;360;48.764;9.164;2023-03-01T08:32:38;9.17;;;6.30;;
751;SDS011;360;48.764;9.164;2023-03-01T08:35:06;15.30;;;6.90;;
751;SDS011;360;48.764;9.164;2023-03-01T08:37:33;11.40;;;7.80;;
751;SDS011;360;48.764;9.164;2023-03-01T08:40:00;11.73;;;7.73;;
751;SDS011;360;48.764;9.164;2023-03-01T08:42:28;8.43;;;6.27;;
751;SDS011;360;48.764;9.164;2023-03-01T08:44:55;9.83;;;6.57;;
751;SDS011;360;48.764;9.164;2023-03-01T08:47:24;11.93;;;7.30;;
751;SDS011;360;48.764;9.164;2023-03-01T08:49:51;12.00;;;6.87;;
751;SDS011;360;48.764;9.164;2023-03-01T08:52:18;13.50;;;8.20;;
751;SDS011;360;48.764;9.164;2023-03-01T08:54:46;12.57;;;8.67;;
751;SDS011;360;48.764;9.164;2023-03-01T08:57:14;12.80;;;8.13;;
751;SDS011;360;48.764;9.164;2023-03-01T08:59:41;9.47;;;6.13;;
751;SDS011;360;48.764;9.164;2023-03-01T09:02:10;18.73;;;8.73;;
751;SDS011;360;48.764;9.164;2023-03-01T09:04:39;10.37;;;6.70;;
751;SDS011;360;48.764;9.164;2023-03-01T09:07:06;14.17;;;6.70;;
751;SDS011;360;48.764;9.164;2023-03-01T09:09:34;12.43;;;8.97;;
751;SDS011;360;48.764;9.164;2023-03-01T09:12:01;15.07;;;7.50;;
751;SDS011;360;48.764;9.164;2023-03-01T09:14:28;10.90;;;7.23;;
751;SDS011;360;48.764;9.164;2023-03-01T09:16:56;8.47;;;5.90;;
751;SDS011;360;48.764;9.164;2023-03-01T09:19:27;12.80;;;8.37;;
751;SDS011;360;48.764;9.164;2023-03-01T09:21:56;13.47;;;7.20;;
751;SDS011;360;48.764;9.164;2023-03-01T09:24:23;16.53;;;7.73;;
751;SDS011;360;48.764;9.164;2023-03-01T09:26:53;13.83;;;8.13;;
751;SDS011;360;48.764;9.164;2023-03-01T09:29:20;12.43;;;7.13;;
751;SDS011;360;48.764;9.164;2023-03-01T09:31:47;9.07;;;5.80;;
751;SDS011;360;48.764;9.164;2023-03-01T09:34:14;14.27;;;7.57;;
751;SDS011;360;48.764;9.164;2023-03-01T09:36:48;11.20;;;6.40;;
751;SDS011;360;48.764;9.164;2023-03-01T09:39:16;10.67;;;6.77;;
751;SDS011;360;48.764;9.164;2023-03-01T09:41:45;14.70;;;7.67;;
751;SDS011;360;48.764;9.164;2023-03-01T09:44:21;9.67;;;7.60;;
751;SDS011;360;48.764;9.164;2023-03-01T09:46:50;8.97;;;6.07;;
751;SDS011;360;48.764;9.164;2023-03-01T09:49:18;10.73;;;7.70;;
751;SDS011;360;48.764;9.164;2023-03-01T09:51:50;10.07;;;7.50;;
751;SDS011;360;48.764;9.164;2023-03-01T09:54:22;10.27;;;6.33;;
751;SDS011;360;48.764;9.164;2023-03-01T09:56:53;11.67;;;7.07;;
751;SDS011;360;48.764;9.164;2023-03-01T09:59:24;12.73;;;6.90;;
751;SDS011;360;48.764;9.164;2023-03-01T10:01:54;11.50;;;7.00;;
751;SDS011;360;48.764;9.164;2023-03-01T10:04:26;13.17;;;6.27;;
751;SDS011;360;48.764;9.164;2023-03-01T10:06:58;16.23;;;7.73;;
751;SDS011;360;48.764;9.164;2023-03-01T10:09:30;11.57;;;6.93;;
751;SDS011;360;48.764;9.164;2023-03-01T10:11:58;11.27;;;6.50;;
751;SDS011;360;48.764;9.164;2023-03-01T10:14:28;12.03;;;6.13;;
751;SDS011;360;48.764;9.164;2023-03-01T10:16:57;11.20;;;6.73;;
751;SDS011;360;48.764;9.164;2023-03-01T10:19:29;13.20;;;7.73;;
751;SDS011;360;48.764;9.164;2023-03-01T10:21:57;11.20;;;8.67;;
751;SDS011;360;48.764;9.164;2023-03-01T10:24:27;12.00;;;8.40;;
751;SDS011;360;48.764;9.164;2023-03-01T10:27:00;16.30;;;8.77;;
751;SDS011;360;48.764;9.164;2023-03-01T10:29:34;11.37;;;6.90;;
751;SDS011;360;48.764;9.164;2023-03-01T10:32:02;15.47;;;8.07;;
751;SDS011;360;48.764;9.164;2023-03-01T10:34:31;16.20;;;8.20;;
751;SDS011;360;48.764;9.164;2023-03-01T10:37:04;16.73;;;7.20;;
751;SDS011;360;48.764;9.164;2023-03-01T10:39:35;13.17;;;7.37;;
751;SDS011;360;48.764;9.164;2023-03-01T10:42:04;13.33;;;7.73;;
751;SDS011;360;48.764;9.164;2023-03-01T10:44:36;13.77;;;7.80;;
751;SDS011;360;48.764;9.164;2023-03-01T10:47:03;11.83;;;6.30;;
751;SDS011;360;48.764;9.164;2023-03-01T10:49:30;12.10;;;7.83;;
751;SDS011;360;48.764;9.164;2023-03-01T10:51:58;9.53;;;5.70;;
751;SDS011;360;48.764;9.164;2023-03-01T10:54:37;10.60;;;6.37;;
751;SDS011;360;48.764;9.164;2023-03-01T10:57:09;17.33;;;8.40;;
751;SDS011;360;48.764;9.164;2023-03-01T10:59:51;14.53;;;9.23;;
751;SDS011;360;48.764;9.164;2023-03-01T11:02:29;10.60;;;7.00;;
751;SDS011;360;48.764;9.164;2023-03-01T11:04:59;11.40;;;7.73;;
751;SDS011;360;48.764;9.164;2023-03-01T11:07:26;13.50;;;7.47;;
751;SDS011;360;48.764;9.164;2023-03-01T11:09:53;13.47;;;6.57;;
751;SDS011;360;48.764;9.164;2023-03-01T11:12:22;10.90;;;6.70;;
751;SDS011;360;48.764;9.164;2023-03-01T11:14:50;12.10;;;7.50;;
751;SDS011;360;48.764;9.164;2023-03-01T11:17:18;9.60;;;6.20;;
751;SDS011;360;48.764;9.164;2023-03-01T11:19:59;10.30;;;6.77;;
751;SDS011;360;48.764;9.164;2023-03-01T11:22:27;15.73;;;7.63;;
751;SDS011;360;48.764;9.164;2023-03-01T11:24:54;9.57;;;6.90;;
751;SDS011;360;48.764;9.164;2023-03-01T11:27:25;12.27;;;6.83;;
751;SDS011;360;48.764;9.164;2023-03-01T11:29:53;12.60;;;7.40;;
751;SDS011;360;48.764;9.164;2023-03-01T11:32:23;19.47;;;7.90;;
751;SDS011;360;48.764;9.164;2023-03-01T11:34:55;15.30;;;8.13;;
751;SDS011;360;48.764;9.164;2023-03-01T11:37:26;14.83;;;7.83;;
751;SDS011;360;48.764;9.164;2023-03-01T11:39:58;11.17;;;7.83;;
751;SDS011;360;48.764;9.164;2023-03-01T11:42:30;12.40;;;7.50;;
751;SDS011;360;48.764;9.164;2023-03-01T11:45:05;15.20;;;9.27;;
751;SDS011;360;48.764;9.164;2023-03-01T11:47:37;12.93;;;6.60;;
751;SDS011;360;48.764;9.164;2023-03-01T11:50:13;10.30;;;7.57;;
751;SDS011;360;48.764;9.164;2023-03-01T11:52:45;10.90;;;6.73;;
751;SDS011;360;48.764;9.164;2023-03-01T11:55:21;12.90;;;6.93;;
751;SDS011;360;48.764;9.164;2023-03-01T11:57:55;15.70;;;8.43;;
751;SDS011;360;48.764;9.164;2023-03-01T12:00:36;13.53;;;8.00;;
751;SDS011;360;48.764;9.164;2023-03-01T12:06:09;10.20;;;7.87;;
751;SDS011;360;48.764;9.164;2023-03-01T12:08:40;9.13;;;6.20;;
751;SDS011;360;48.764;9.164;2023-03-01T12:11:11;11.87;;;7.00;;
751;SDS011;360;48.764;9.164;2023-03-01T12:13:46;14.90;;;7.50;;
751;SDS011;360;48.764;9.164;2023-03-01T12:16:22;13.07;;;5.73;;
751;SDS011;360;48.764;9.164;2023-03-01T12:18:57;12.70;;;7.47;;
751;SDS011;360;48.764;9.164;2023-03-01T12:21:30;9.90;;;7.50;;
751;SDS011;360;48.764;9.164;2023-03-01T12:24:14;14.07;;;8.80;;
751;SDS011;360;48.764;9.164;2023-03-01T12:26:48;12.77;;;7.97;;
751;SDS011;360;48.764;9.164;2023-03-01T12:29:23;12.20;;;6.07;;
751;SDS011;360;48.764;9.164;2023-03-01T12:34:38;12.90;;;7.43;;
751;SDS011;360;48.764;9.164;2023-03-01T12:37:21;15.43;;;6.73;;
751;SDS011;360;48.764;9.164;2023-03-01T12:39:52;10.23;;;7.20;;
751;SDS011;360;48.764;9.164;2023-03-01T12:42:23;17.13;;;8.23;;
751;SDS011;360;48.764;9.164;2023-03-01T12:44:57;10.77;;;7.63;;
751;SDS011;360;48.764;9.164;2023-03-01T12:47:32;9.60;;;6.83;;
751;SDS011;360;48.764;9.164;2023-03-01T12:50:02;10.80;;;6.53;;
751;SDS011;360;48.764;9.164;2023-03-01T12:52:33;10.33;;;6.73;;
751;SDS011;360;48.764;9.164;2023-03-01T12:55:02;12.30;;;6.03;;
751;SDS011;360;48.764;9.164;2023-03-01T12:57:34;12.97;;;7.83;;
751;SDS011;360;48.764;9.164;2023-03-01T13:00:09;13.00;;;6.80;;
751;SDS011;360;48.764;9.164;2023-03-01T13:02:44;10.57;;;6.17;;
751;SDS011;360;48.764;9.164;2023-03-01T13:05:20;13.23;;;6.73;;
751;SDS011;360;48.764;9.164;2023-03-01T13:07:51;11.37;;;6.17;;
751;SDS011;360;48.764;9.164;2023-03-01T13:10:21;10.23;;;5.97;;
751;SDS011;360;48.764;9.164;2023-03-01T13:12:52;10.73;;;6.80;;
751;SDS011;360;48.764;9.164;2023-03-01T13:18:28;15.17;;;6.57;;
751;SDS011;360;48.764;9.164;2023-03-01T13:20:56;12.67;;;7.93;;
751;SDS011;360;48.764;9.164;2023-03-01T13:23:26;13.53;;;6.83;;
751;SDS011;360;48.764;9.164;2023-03-01T13:26:00;10.07;;;7.27;;
751;SDS011;360;48.764;9.164;2023-03-01T13:28:46;8.00;;;5.60;;
751;SDS011;360;48.764;9.164;2023-03-01T13:34:01;10.20;;;7.27;;
751;SDS011;360;48.764;9.164;2023-03-01T13:36:47;11.20;;;6.00;;
751;SDS011;360;48.764;9.164;2023-03-01T13:39:29;14.10;;;7.10;;
751;SDS011;360;48.764;9.164;2023-03-01T13:41:58;10.67;;;6.00;;
751;SDS011;360;48.764;9.164;2023-03-01T13:44:26;8.40;;;6.40;;
751;SDS011;360;48.764;9.164;2023-03-01T13:46:56;9.80;;;7.03;;
751;SDS011;360;48.764;9.164;2023-03-01T13:49:26;15.60;;;7.27;;
751;SDS011;360;48.764;9.164;2023-03-01T13:51:54;9.53;;;8.07;;
751;SDS011;360;48.764;9.164;2023-03-01T13:54:24;12.00;;;7.10;;
751;SDS011;360;48.764;9.164;2023-03-01T13:56:52;12.27;;;7.80;;
751;SDS011;360;48.764;9.164;2023-03-01T13:59:20;10.80;;;6.47;;
751;SDS011;360;48.764;9.164;2023-03-01T14:01:51;12.77;;;8.47;;
751;SDS011;360;48.764;9.164;2023-03-01T14:04:20;13.30;;;8.43;;
751;SDS011;360;48.764;9.164;2023-03-01T14:06:48;10.00;;;7.03;;
751;SDS011;360;48.764;9.164;2023-03-01T14:09:16;10.20;;;8.43;;
751;SDS011;360;48.764;9.164;2023-03-01T14:14:38;11.57;;;7.80;;
751;SDS011;360;48.764;9.164;2023-03-01T14:17:17;14.03;;;7.90;;
751;SDS011;360;48.764;9.164;2023-03-01T14:19:47;14.17;;;8.77;;
751;SDS011;360;48.764;9.164;2023-03-01T14:22:18;9.40;;;6.73;;
751;SDS011;360;48.764;9.164;2023-03-01T14:24:46;12.77;;;9.10;;
751;SDS011;360;48.764;9.164;2023-03-01T14:27:14;11.80;;;8.40;;
751;SDS011;360;48.764;9.164;2023-03-01T14:29:42;13.90;;;8.77;;
751;SDS011;360;48.764;9.164;2023-03-01T14:32:15;12.77;;;7.23;;
751;SDS011;360;48.764;9.164;2023-03-01T14:34:45;11.37;;;7.40;;
751;SDS011;360;48.764;9.164;2023-03-01T14:37:19;11.93;;;7.97;;
751;SDS011;360;48.764;9.164;2023-03-01T14:39:47;12.60;;;7.27;;
751;SDS011;360;48.764;9.164;2023-03-01T14:42:14;13.33;;;8.27;;
751;SDS011;360;48.764;9.164;2023-03-01T14:44:42;12.73;;;7.47;;
751;SDS011;360;48.764;9.164;2023-03-01T14:47:11;11.30;;;9.47;;
751;SDS011;360;48.764;9.164;2023-03-01T14:49:39;15.70;;;9.47;;
751;SDS011;360;48.764;9.164;2023-03-01T14:52:07;12.27;;;7.63;;
751;SDS011;360;48.764;9.164;2023-03-01T14:54:46;12.90;;;8.53;;
751;SDS011;360;48.764;9.164;2023-03-01T14:57:14;13.87;;;9.03;;
751;SDS011;360;48.764;9.164;2023-03-01T14:59:41;11.13;;;7.50;;
751;SDS011;360;48.764;9.164;2023-03-01T15:02:11;11.03;;;8.13;;
751;SDS011;360;48.764;9.164;2023-03-01T15:04:42;10.80;;;7.10;;
751;SDS011;360;48.764;9.164;2023-03-01T15:07:09;12.10;;;7.33;;
751;SDS011;360;48.764;9.164;2023-03-01T15:09:39;9.70;;;7.27;;
751;SDS011;360;48.764;9.164;2023-03-01T15:12:33;12.77;;;7.63;;
751;SDS011;360;48.764;9.164;2023-03-01T15:15:01;12.83;;;8.67;;
751;SDS011;360;48.764;9.164;2023-03-01T15:17:48;14.77;;;7.00;;
751;SDS011;360;48.764;9.164;2023-03-01T15:20:18;11.40;;;7.67;;
751;SDS011;360;48.764;9.164;2023-03-01T15:22:46;13.07;;;8.50;;
751;SDS011;360;48.764;9.164;2023-03-01T15:25:14;14.30;;;7.53;;
751;SDS011;360;48.764;9.164;2023-03-01T15:27:46;11.30;;;7.63;;
751;SDS011;360;48.764;9.164;2023-03-01T15:30:16;12.73;;;7.80;;
751;SDS011;360;48.764;9.164;2023-03-01T15:32:44;15.33;;;9.40;;
751;SDS011;360;48.764;9.164;2023-03-01T15:38:29;15.47;;;8.83;;
751;SDS011;360;48.764;9.164;2023-03-01T15:40:58;11.23;;;6.53;;
751;SDS011;360;48.764;9.164;2023-03-01T15:43:44;10.93;;;7.90;;
751;SDS011;360;48.764;9.164;2023-03-01T15:46:22;13.50;;;7.60;;
751;SDS011;360;48.764;9.164;2023-03-01T15:48:51;13.60;;;8.73;;
751;SDS011;360;48.764;9.164;2023-03-01T15:51:20;9.00;;;7.83;;
751;SDS011;360;48.764;9.164;2023-03-01T15:53:50;15.30;;;7.70;;
751;SDS011;360;48.764;9.164;2023-03-01T15:56:17;15.30;;;8.30;;
751;SDS011;360;48.764;9.164;2023-03-01T15:58:46;11.63;;;7.60;;
751;SDS011;360;48.764;9.164;2023-03-01T16:01:13;10.70;;;7.57;;
751;SDS011;360;48.764;9.164;2023-03-01T16:03:41;15.57;;;8.17;;
751;SDS011;360;48.764;9.164;2023-03-01T16:06:09;14.37;;;9.33;;
751;SDS011;360;48.764;9.164;2023-03-01T16:08:36;13.30;;;8.57;;
751;SDS011;360;48.764;9.164;2023-03-01T16:11:03;13.70;;;7.70;;